Las Vegas, Nevada
Current Conditions -  °F | °C
As of 12:56 AM on Sunday 26 Oct 2014 (Local Time) from KLAS Reporting Station
Broken Clouds Broken Clouds  
Wind Chill: 74°   Ceiling: 18000
Heat Index: 74°   Visibility: 10mi
Dew Point: 39°   Wind: 15mph
Humidity: 28%   Direction: 190°S
Pressure: 29.9"   Gusts: NA
Location:  36.17°N, 115.13°W
Report Text: KLAS 260756Z 19013KT 10SM FEW120 BKN180 23/04 A2990 RMK AO2 PK WND 22027/0718 SLP103 T02330039 403060172
Loading
Personal Weather Stations






























Interactive Weather Map
Tropical Storm Tracking
New forecast layout! Learn more

10-Day Weather Forecast

Advertisements
Track Severe Weather on mobile